Time;durP1;ratioP1;P1;durP2;ratioP2;P2;SDS_P1;SDS_P2;PMS_P1;PMS_P2;Temp;Humidity;BMP_temperature;BMP_pressure;BME280_temperature;BME280_humidity;BME280_pressure;Samples;Min_cycle;Max_cycle;Signal;HPM_P1;HPM_P2
2022/04/11 00:00:05;;;;;;;8.27;3.13;;;;;;;2.09;76.28;100829.91;4995538;28;20061;-60
2022/04/11 00:02:32;;;;;;;8.55;2.47;;;;;;;2.07;76.31;100841.75;4995358;28;20069;-61
2022/04/11 00:04:58;;;;;;;10.00;3.58;;;;;;;2.05;76.19;100839.16;4995352;28;20469;-61
2022/04/11 00:07:26;;;;;;;7.85;2.67;;;;;;;2.04;75.90;100836.56;4995242;28;20501;-61
2022/04/11 00:09:53;;;;;;;12.95;3.28;;;;;;;2.04;76.17;100846.78;4995333;28;20065;-61
2022/04/11 00:12:21;;;;;;;9.38;2.45;;;;;;;2.04;75.91;100846.78;4995442;28;20051;-59
2022/04/11 00:14:48;;;;;;;10.95;3.85;;;;;;;2.01;76.29;100841.59;4994906;28;20050;-59
2022/04/11 00:17:14;;;;;;;10.52;2.78;;;;;;;2.00;76.25;100847.53;4995458;28;20062;-60
2022/04/11 00:19:40;;;;;;;9.32;2.75;;;;;;;1.99;76.21;100845.78;4995341;28;20058;-60
2022/04/11 00:22:07;;;;;;;10.68;2.50;;;;;;;1.97;76.56;100845.75;4995008;28;20065;-61
2022/04/11 00:24:35;;;;;;;12.45;2.92;;;;;;;1.96;76.46;100844.00;4995246;28;20065;-61
2022/04/11 00:27:07;;;;;;;10.20;2.47;;;;;;;1.95;76.72;100841.41;4994336;28;20649;-59
2022/04/11 00:29:35;;;;;;;12.73;3.03;;;;;;;1.93;76.63;100848.19;4995250;28;20046;-60
2022/04/11 00:32:02;;;;;;;8.82;2.35;;;;;;;1.92;76.82;100846.44;4994532;28;20382;-60
2022/04/11 00:34:29;;;;;;;13.68;2.85;;;;;;;1.92;76.96;100856.66;4994724;28;20388;-61
2022/04/11 00:36:57;;;;;;;9.82;2.95;;;;;;;1.91;76.89;100850.69;4994988;28;20050;-59
2022/04/11 00:39:24;;;;;;;10.25;2.75;;;;;;;1.89;77.00;100853.22;4995025;28;20050;-61
2022/04/11 00:41:51;;;;;;;8.32;2.15;;;;;;;1.89;77.22;100858.31;4994923;28;20065;-60
2022/04/11 00:44:19;;;;;;;11.25;2.92;;;;;;;1.87;77.43;100859.97;4994330;28;20051;-61
2022/04/11 00:46:45;;;;;;;10.52;2.85;;;;;;;1.85;77.51;100861.63;4992120;28;20070;-61
2022/04/11 00:49:12;;;;;;;8.32;2.45;;;;;;;1.83;77.59;100865.81;4975379;28;20058;-61
2022/04/11 00:51:40;;;;;;;6.85;2.47;;;;;;;1.85;77.34;100865.84;4976178;28;20054;-61
2022/04/11 00:54:08;;;;;;;8.73;2.10;;;;;;;1.84;77.38;100864.13;4994555;28;20058;-61
2022/04/11 00:56:36;;;;;;;6.32;2.40;;;;;;;1.82;77.56;100865.78;4994236;28;20430;-61
2022/04/11 00:59:03;;;;;;;10.45;2.95;;;;;;;1.80;77.87;100873.41;4994460;28;20482;-61
2022/04/11 01:01:31;;;;;;;8.75;2.60;;;;;;;1.80;77.73;100878.50;4994436;28;20078;-61
2022/04/11 01:03:57;;;;;;;11.68;2.60;;;;;;;1.81;77.75;100880.25;4994033;28;20069;-61
2022/04/11 01:06:24;;;;;;;10.38;2.78;;;;;;;1.79;78.19;100875.91;4977659;28;20058;-61
2022/04/11 01:08:51;;;;;;;12.45;3.10;;;;;;;1.78;78.30;100882.72;4993713;28;20275;-61
2022/04/11 01:11:20;;;;;;;10.48;2.30;;;;;;;1.77;78.07;100882.66;4993940;28;20050;-61
2022/04/11 01:13:47;;;;;;;12.02;2.78;;;;;;;1.78;78.46;100882.72;4994234;28;20058;-59
2022/04/11 01:16:13;;;;;;;10.57;2.45;;;;;;;1.78;78.25;100885.25;4993468;28;20065;-61
2022/04/11 01:18:41;;;;;;;8.20;2.30;;;;;;;1.78;78.30;100885.25;4994394;28;20065;-61
2022/04/11 01:21:10;;;;;;;11.32;2.85;;;;;;;1.78;78.41;100889.50;4994311;28;20062;-61
2022/04/11 01:23:37;;;;;;;11.48;2.97;;;;;;;1.76;78.39;100886.03;4993681;28;20057;-61
2022/04/11 01:26:06;;;;;;;7.90;2.25;;;;;;;1.75;78.42;100886.88;4994160;28;20060;-61
2022/04/11 01:28:38;;;;;;;8.15;2.83;;;;;;;1.74;78.39;100897.91;4994159;28;20076;-61
2022/04/11 01:31:05;;;;;;;9.88;2.35;;;;;;;1.70;78.77;100896.94;4993790;28;20081;-60
2022/04/11 01:33:33;;;;;;;7.60;2.08;;;;;;;1.69;78.24;100899.47;4994064;28;20046;-60
2022/04/11 01:36:01;;;;;;;11.98;3.03;;;;;;;1.67;78.61;100896.84;4993656;28;20134;-60
2022/04/11 01:38:29;;;;;;;8.80;2.40;;;;;;;1.66;78.38;100897.69;4993521;28;20054;-61
2022/04/11 01:40:58;;;;;;;12.15;3.10;;;;;;;1.66;78.68;100899.38;4992326;28;20069;-61
2022/04/11 01:43:26;;;;;;;8.00;2.25;;;;;;;1.65;78.50;100898.50;4993517;28;20046;-61
2022/04/11 01:45:54;;;;;;;7.93;2.30;;;;;;;1.62;79.00;100907.75;4993738;28;20062;-60
2022/04/11 01:48:22;;;;;;;9.68;2.47;;;;;;;1.59;78.85;100903.44;4993896;28;20061;-61
2022/04/11 01:50:48;;;;;;;7.57;1.90;;;;;;;1.58;79.06;100911.91;4993353;28;20061;-61
2022/04/11 01:53:18;;;;;;;6.63;2.35;;;;;;;1.57;78.74;100912.75;4993669;28;20057;-61
2022/04/11 01:55:46;;;;;;;7.82;2.17;;;;;;;1.55;79.15;100922.00;4993809;28;20064;-60
2022/04/11 01:58:15;;;;;;;9.02;2.50;;;;;;;1.54;78.99;100925.38;4993684;28;20050;-61
2022/04/11 02:00:42;;;;;;;13.30;2.17;;;;;;;1.51;79.28;100925.28;4993239;28;20507;-59
2022/04/11 02:03:11;;;;;;;11.98;2.50;;;;;;;1.50;79.02;100923.56;4993455;28;20043;-60
2022/04/11 02:05:39;;;;;;;9.68;1.95;;;;;;;1.50;79.06;100928.66;4993529;28;20058;-60
2022/04/11 02:08:07;;;;;;;5.72;2.00;;;;;;;1.49;79.11;100934.59;4993585;28;20136;-61
2022/04/11 02:10:36;;;;;;;8.85;2.67;;;;;;;1.45;79.31;100933.63;4993117;28;20509;-60
2022/04/11 02:13:03;;;;;;;9.10;3.95;;;;;;;1.43;79.46;100926.75;4993270;28;20054;-60
2022/04/11 02:15:31;;;;;;;10.20;2.15;;;;;;;1.43;79.67;100931.84;4992764;28;20065;-59
2022/04/11 02:17:58;;;;;;;8.05;2.20;;;;;;;1.41;79.43;100928.38;4993133;28;20475;-61
2022/04/11 02:20:24;;;;;;;10.35;4.05;;;;;;;1.39;79.75;100935.13;4993181;28;20050;-61
2022/04/11 02:22:55;;;;;;;51.38;25.30;;;;;;;1.37;80.00;100932.53;4993707;28;20057;-60
2022/04/11 02:25:25;;;;;;;51.17;19.85;;;;;;;1.37;79.87;100931.66;4993539;28;20120;-60
2022/04/11 02:27:54;;;;;;;32.70;13.18;;;;;;;1.37;79.90;100940.19;4993518;28;20136;-61
2022/04/11 02:30:22;;;;;;;40.28;13.90;;;;;;;1.35;79.96;100935.84;4993374;28;20109;-61
2022/04/11 02:32:52;;;;;;;30.58;9.50;;;;;;;1.34;79.97;100936.66;4992913;28;20051;-61
2022/04/11 02:35:20;;;;;;;14.15;4.35;;;;;;;1.32;80.09;100933.19;4993440;28;20081;-61
2022/04/11 02:37:47;;;;;;;32.15;10.13;;;;;;;1.31;79.95;100944.25;4993028;28;20416;-61
2022/04/11 02:40:14;;;;;;;49.35;16.17;;;;;;;1.28;80.29;100934.78;4993542;28;20050;-61
2022/04/11 02:42:43;;;;;;;33.95;8.88;;;;;;;1.26;80.81;100939.84;4993434;28;20057;-61
2022/04/11 02:45:10;;;;;;;13.02;4.03;;;;;;;1.26;80.49;100936.44;4993450;28;20050;-61
2022/04/11 02:47:37;;;;;;;10.25;2.75;;;;;;;1.22;80.58;100932.03;4993220;28;20054;-61
2022/04/11 02:50:05;;;;;;;58.30;15.73;;;;;;;1.22;80.70;100935.47;4993547;28;20061;-61
2022/04/11 02:52:33;;;;;;;88.50;25.67;;;;;;;1.18;80.63;100941.28;4996767;28;20061;-61
2022/04/11 02:55:00;;;;;;;53.40;16.52;;;;;;;1.19;80.52;100943.03;4996795;28;20054;-61
2022/04/11 02:57:26;;;;;;;22.27;7.82;;;;;;;1.16;80.60;100937.81;4996354;28;20411;-59
2022/04/11 02:59:53;;;;;;;10.75;3.20;;;;;;;1.15;80.40;100938.63;4996549;28;20057;-60
2022/04/11 03:02:21;;;;;;;26.08;6.80;;;;;;;1.15;80.57;100946.28;4996387;28;20054;-58
2022/04/11 03:04:47;;;;;;;74.65;24.08;;;;;;;1.13;80.41;100941.97;4996366;28;20050;-61
2022/04/11 03:07:15;;;;;;;99.40;29.10;;;;;;;1.13;80.72;100940.28;4996660;28;20054;-61
2022/04/11 03:09:42;;;;;;;61.30;19.13;;;;;;;1.13;80.68;100942.81;4996758;28;20050;-61
2022/04/11 03:12:10;;;;;;;29.90;10.18;;;;;;;1.13;80.58;100941.97;4996359;28;20050;-61
2022/04/11 03:14:36;;;;;;;18.00;4.60;;;;;;;1.12;80.46;100938.53;4996282;28;20046;-61
2022/04/11 03:17:03;;;;;;;24.77;7.25;;;;;;;1.14;80.69;100938.59;4995981;28;20062;-60
2022/04/11 03:19:29;;;;;;;66.63;22.20;;;;;;;1.12;80.81;100941.09;4996190;28;20058;-60
2022/04/11 03:21:55;;;;;;;130.30;36.30;;;;;;;1.13;80.60;100937.72;4996012;28;20058;-60
2022/04/11 03:24:25;;;;;;;93.15;27.65;;;;;;;1.13;80.77;100936.84;4996134;28;20054;-61
2022/04/11 03:26:51;;;;;;;50.30;13.90;;;;;;;1.10;80.58;100937.63;4996211;28;20050;-60
2022/04/11 03:29:19;;;;;;;22.67;7.03;;;;;;;1.11;80.39;100939.34;4996226;28;20050;-61
2022/04/11 03:31:48;;;;;;;9.82;3.33;;;;;;;1.12;80.61;100940.22;4996153;28;20054;-60
2022/04/11 03:34:15;;;;;;;11.18;2.47;;;;;;;1.13;80.57;100942.81;4995195;28;20418;-61
2022/04/11 03:36:42;;;;;;;19.90;4.43;;;;;;;1.13;80.67;100942.81;4992547;28;20221;-61
2022/04/11 03:39:08;;;;;;;30.85;9.93;;;;;;;1.13;80.97;100955.59;4991790;28;20062;-60
2022/04/11 03:41:36;;;;;;;25.38;8.90;;;;;;;1.14;81.14;100949.66;4983101;28;20047;-61
2022/04/11 03:44:03;;;;;;;28.05;9.20;;;;;;;1.15;81.27;100960.75;4977576;28;20055;-59
2022/04/11 03:46:29;;;;;;;9.57;2.97;;;;;;;1.16;81.30;100958.25;4995647;28;20050;-60
2022/04/11 03:48:56;;;;;;;10.43;3.03;;;;;;;1.20;81.50;100954.97;4995841;28;20108;-60
2022/04/11 03:51:22;;;;;;;16.75;4.50;;;;;;;1.25;81.55;100952.56;4996125;28;20065;-60
2022/04/11 03:53:50;;;;;;;14.88;3.70;;;;;;;1.31;81.65;100962.13;4995269;28;20361;-61
2022/04/11 03:56:17;;;;;;;40.08;13.55;;;;;;;1.37;81.71;100968.28;4993497;28;20065;-60
2022/04/11 03:58:46;;;;;;;57.42;19.27;;;;;;;1.43;81.55;100972.72;4976592;28;20054;-60
2022/04/11 04:01:14;;;;;;;52.25;16.33;;;;;;;1.50;81.60;100969.53;4976346;28;20051;-61
2022/04/11 04:03:42;;;;;;;20.27;8.00;;;;;;;1.56;81.57;100973.19;4985195;28;20053;-61
2022/04/11 04:06:11;;;;;;;20.70;5.32;;;;;;;1.63;81.56;100970.81;4995560;28;20498;-60
2022/04/11 04:08:37;;;;;;;19.70;5.03;;;;;;;1.69;81.48;100978.69;4995795;28;20054;-60
2022/04/11 04:11:06;;;;;;;13.70;3.97;;;;;;;1.72;81.37;100979.66;4995399;28;20578;-61
2022/04/11 04:13:34;;;;;;;15.70;4.25;;;;;;;1.78;81.11;100981.53;4995730;28;20050;-59
2022/04/11 04:16:02;;;;;;;10.95;3.90;;;;;;;1.83;81.15;100978.28;4995168;28;20050;-60
2022/04/11 04:18:28;;;;;;;10.55;3.63;;;;;;;1.88;80.86;100983.53;4995602;28;20057;-61
2022/04/11 04:20:55;;;;;;;10.80;3.65;;;;;;;1.93;80.60;100981.13;4995748;28;20138;-61
2022/04/11 04:23:21;;;;;;;25.33;8.38;;;;;;;1.99;80.37;100986.41;4995251;28;20080;-61
2022/04/11 04:25:49;;;;;;;29.13;8.52;;;;;;;2.04;80.07;100984.84;4995567;28;20054;-61
2022/04/11 04:28:17;;;;;;;9.00;3.22;;;;;;;2.06;80.45;100984.09;4995163;28;20363;-61
2022/04/11 04:30:45;;;;;;;11.15;3.03;;;;;;;2.11;79.86;100986.81;4995242;28;20062;-60
2022/04/11 04:33:13;;;;;;;8.93;2.78;;;;;;;2.14;79.90;100986.91;4994892;28;20140;-60
2022/04/11 04:35:40;;;;;;;8.90;2.70;;;;;;;2.17;79.91;100999.78;4994981;28;20141;-60
2022/04/11 04:38:06;;;;;;;13.88;3.70;;;;;;;2.22;79.51;100995.66;4995292;28;20055;-59
2022/04/11 04:40:32;;;;;;;12.27;3.30;;;;;;;2.23;79.34;101002.50;4995360;28;20062;-61
2022/04/11 04:42:59;;;;;;;12.65;3.45;;;;;;;2.24;79.11;101001.69;4995000;28;20061;-61
2022/04/11 04:45:26;;;;;;;18.27;6.53;;;;;;;2.24;78.98;101003.38;4995054;28;20101;-61
2022/04/11 04:47:52;;;;;;;21.77;6.85;;;;;;;2.23;79.11;101002.50;4994659;28;20491;-61
2022/04/11 04:50:20;;;;;;;17.40;4.10;;;;;;;2.22;78.54;101000.78;4994742;28;20361;-61
2022/04/11 04:52:47;;;;;;;31.02;9.13;;;;;;;2.23;78.79;101002.50;4994863;28;20089;-61
2022/04/11 04:55:13;;;;;;;50.78;18.52;;;;;;;2.25;78.78;101010.22;4992154;28;20046;-60
2022/04/11 04:57:41;;;;;;;42.50;15.48;;;;;;;2.40;79.38;101008.97;4994585;28;20054;-60
2022/04/11 05:00:08;;;;;;;25.10;8.02;;;;;;;2.67;79.66;101010.63;4994739;28;20058;-60
2022/04/11 05:02:36;;;;;;;13.45;4.95;;;;;;;3.03;78.84;101016.72;4994760;28;20368;-60
2022/04/11 05:05:09;;;;;;;18.88;4.38;;;;;;;3.46;78.34;101013.56;4994146;28;20541;-60
2022/04/11 05:07:37;;;;;;;16.40;4.07;;;;;;;3.90;76.90;101010.34;4994681;28;20057;-52
2022/04/11 05:10:05;;;;;;;13.95;4.32;;;;;;;4.33;75.62;101018.19;4988864;28;20116;-57
2022/04/11 05:12:38;;;;;;;9.55;2.78;;;;;;;4.71;74.09;101015.56;4990564;28;20056;-56
2022/04/11 05:15:05;;;;;;;11.43;3.75;;;;;;;4.95;72.96;101005.75;4998428;28;20448;-55
2022/04/11 05:17:32;;;;;;;9.32;3.10;;;;;;;5.10;71.39;101014.56;4993830;28;20413;-55
2022/04/11 05:19:58;;;;;;;26.25;8.90;;;;;;;5.19;70.32;101019.88;4994106;28;20046;-60
2022/04/11 05:22:25;;;;;;;16.80;4.93;;;;;;;5.34;69.29;101020.16;4993469;28;20498;-55
2022/04/11 05:24:52;;;;;;;14.60;2.92;;;;;;;5.53;69.60;101024.78;4993318;28;20376;-59
2022/04/11 05:27:19;;;;;;;11.18;3.05;;;;;;;5.75;68.40;101022.56;4993566;28;20147;-60
2022/04/11 05:29:45;;;;;;;10.63;2.80;;;;;;;5.96;67.86;101033.22;4977765;28;20050;-57
2022/04/11 05:32:12;;;;;;;11.23;2.92;;;;;;;6.21;67.52;101025.00;4993782;28;20050;-54
2022/04/11 05:34:38;;;;;;;10.35;2.70;;;;;;;6.58;66.02;101021.22;4993784;28;20050;-58
2022/04/11 05:37:06;;;;;;;7.82;2.83;;;;;;;6.95;65.41;101021.66;4993450;28;20054;-57
2022/04/11 05:39:32;;;;;;;10.02;3.53;;;;;;;7.39;64.19;101024.72;4992246;28;20061;-54
2022/04/11 05:42:00;;;;;;;12.00;4.28;;;;;;;7.80;63.03;101024.16;4993668;28;20074;-59
2022/04/11 05:44:26;;;;;;;13.40;4.47;;;;;;;8.20;60.60;101028.75;4993112;28;20706;-59
2022/04/11 05:46:53;;;;;;;13.10;3.00;;;;;;;8.46;59.30;101028.09;4993365;28;20634;-59
2022/04/11 05:49:20;;;;;;;8.02;2.45;;;;;;;8.61;58.68;101029.88;4993747;28;20096;-62
2022/04/11 05:51:47;;;;;;;10.15;2.70;;;;;;;8.60;57.08;101029.03;4993482;28;20054;-62
2022/04/11 05:54:14;;;;;;;10.23;2.85;;;;;;;8.75;56.63;101031.66;4993532;28;20051;-62
2022/04/11 05:56:40;;;;;;;8.77;2.50;;;;;;;8.95;56.53;101031.75;4993408;28;20053;-62
2022/04/11 05:59:08;;;;;;;12.20;4.28;;;;;;;9.26;55.76;101043.03;4993135;28;20482;-62
2022/04/11 06:01:35;;;;;;;10.85;3.40;;;;;;;9.64;55.85;101039.63;4991908;28;20138;-66
2022/04/11 06:04:02;;;;;;;10.65;2.97;;;;;;;10.08;54.63;101031.84;4992680;28;20061;-62
2022/04/11 06:06:28;;;;;;;11.05;2.70;;;;;;;10.42;53.24;101037.88;4993196;28;20054;-58
2022/04/11 06:08:55;;;;;;;11.00;2.70;;;;;;;10.69;50.83;101037.75;4993298;28;20053;-59
2022/04/11 06:11:21;;;;;;;9.18;2.90;;;;;;;10.83;50.41;101039.44;4993192;28;20407;-52
2022/04/11 06:13:48;;;;;;;10.07;2.95;;;;;;;10.97;50.37;101037.66;4993282;28;20058;-54
2022/04/11 06:16:15;;;;;;;13.45;2.17;;;;;;;11.15;49.42;101036.69;4992699;28;20073;-56
2022/04/11 06:18:42;;;;;;;15.25;3.00;;;;;;;11.44;49.27;101041.69;4993168;28;20077;-56
2022/04/11 06:21:08;;;;;;;9.77;3.47;;;;;;;11.80;47.59;101038.00;4993438;28;20054;-54
2022/04/11 06:23:35;;;;;;;15.70;4.10;;;;;;;12.18;47.36;101045.44;4993373;28;20671;-58
2022/04/11 06:26:01;;;;;;;12.95;3.50;;;;;;;12.64;46.56;101041.47;4995309;28;20054;-54
2022/04/11 06:28:28;;;;;;;6.45;2.75;;;;;;;13.02;45.01;101034.94;4997317;28;20082;-59
2022/04/11 06:30:54;;;;;;;12.77;2.75;;;;;;;13.11;43.94;101042.63;4997086;28;20062;-61
2022/04/11 06:33:22;;;;;;;5.43;2.60;;;;;;;13.10;43.09;101042.63;4994550;28;20058;-60
2022/04/11 06:35:48;;;;;;;12.05;2.97;;;;;;;12.85;43.21;101036.88;4995212;28;20054;-59
2022/04/11 06:38:15;;;;;;;10.50;2.67;;;;;;;12.24;43.52;101040.19;4996205;28;20065;-57
2022/04/11 06:40:41;;;;;;;17.10;3.13;;;;;;;12.13;44.76;101042.91;4989347;28;20399;-60
2022/04/11 06:43:07;;;;;;;10.60;2.53;;;;;;;12.20;44.86;101043.69;4986045;28;20057;-60
2022/04/11 06:45:34;;;;;;;10.55;3.00;;;;;;;12.57;44.64;101039.84;4990417;28;20042;-60
2022/04/11 06:48:00;;;;;;;9.02;2.67;;;;;;;12.72;43.58;101050.94;4995475;28;20046;-60
2022/04/11 06:50:28;;;;;;;10.45;2.70;;;;;;;12.92;42.85;101041.13;4995690;28;20414;-61
2022/04/11 06:52:54;;;;;;;10.15;2.60;;;;;;;12.83;42.72;101052.50;4991145;28;20467;-60
2022/04/11 06:55:21;;;;;;;7.75;2.35;;;;;;;12.80;42.25;101046.47;4995082;28;20070;-61
2022/04/11 06:57:47;;;;;;;10.95;2.50;;;;;;;12.21;42.59;101056.66;4996027;28;20046;-61
2022/04/11 07:00:14;;;;;;;14.90;3.28;;;;;;;11.91;43.45;101052.59;5002570;28;20057;-60
2022/04/11 07:02:41;;;;;;;8.20;3.00;;;;;;;11.75;43.09;101061.38;5004319;28;20069;-58
2022/04/11 07:05:08;;;;;;;13.95;3.47;;;;;;;11.50;43.80;101059.84;4995187;28;20054;-52
2022/04/11 07:07:39;;;;;;;12.77;2.97;;;;;;;11.15;44.59;101068.69;4993760;28;20058;-53
2022/04/11 07:10:07;;;;;;;6.28;2.00;;;;;;;10.82;44.70;101068.81;4994623;28;20050;-55
2022/04/11 07:12:37;;;;;;;9.93;2.35;;;;;;;10.46;43.55;101070.69;4994542;28;20050;-57
2022/04/11 07:15:04;;;;;;;12.15;2.53;;;;;;;10.05;44.52;101084.53;4993878;28;20053;-52
2022/04/11 07:17:31;;;;;;;17.60;2.65;;;;;;;9.71;45.84;101083.63;4993625;28;20061;-58
2022/04/11 07:19:57;;;;;;;8.52;1.95;;;;;;;9.88;46.98;101077.59;4979142;28;20046;-59
2022/04/11 07:22:25;;;;;;;5.40;1.85;;;;;;;10.13;45.03;101082.78;4983310;28;20053;-62
2022/04/11 07:24:54;;;;;;;8.55;1.88;;;;;;;10.49;44.38;101075.00;4990876;28;20054;-65
2022/04/11 07:27:22;;;;;;;6.57;2.10;;;;;;;11.18;43.75;101073.84;4996068;28;20499;-65
2022/04/11 07:29:50;;;;;;;6.68;1.95;;;;;;;11.99;42.66;101071.59;4997562;28;20065;-59
2022/04/11 07:32:17;;;;;;;9.05;2.65;;;;;;;12.82;41.14;101074.19;4992688;28;20069;-59
2022/04/11 07:34:47;;;;;;;7.72;2.00;;;;;;;13.62;39.06;101076.63;4995688;28;20564;-56
2022/04/11 07:37:17;;;;;;;5.70;1.80;;;;;;;14.10;38.38;101074.13;4989812;28;20520;-55
2022/04/11 07:39:46;;;;;;;6.07;1.60;;;;;;;14.50;37.87;101082.09;4990930;28;20050;-56
2022/04/11 07:42:16;;;;;;;4.43;2.05;;;;;;;14.62;35.52;101075.81;4992250;28;20077;-56
2022/04/11 07:44:43;;;;;;;6.03;1.88;;;;;;;14.33;36.11;101076.31;4994909;28;20054;-60
2022/04/11 07:47:11;;;;;;;8.13;2.05;;;;;;;14.03;36.00;101080.28;4995871;28;20054;-60
2022/04/11 07:49:40;;;;;;;6.95;2.63;;;;;;;13.61;36.96;101080.13;4995727;28;20053;-60
2022/04/11 07:52:07;;;;;;;9.10;2.25;;;;;;;12.94;37.40;101081.00;4995858;28;20057;-60
2022/04/11 07:54:35;;;;;;;10.40;2.65;;;;;;;12.34;38.35;101073.00;4989870;28;20057;-59
2022/04/11 07:57:03;;;;;;;9.25;2.10;;;;;;;11.90;38.92;101079.47;4995398;28;20054;-61
2022/04/11 07:59:34;;;;;;;7.28;1.90;;;;;;;11.66;39.05;101082.22;4995539;28;20054;-60
2022/04/11 08:02:02;;;;;;;7.78;2.10;;;;;;;11.37;39.36;101085.84;4995896;28;20051;-60
2022/04/11 08:04:29;;;;;;;14.00;2.30;;;;;;;11.19;39.86;101080.78;4996178;28;20046;-60
2022/04/11 08:06:57;;;;;;;10.82;2.17;;;;;;;11.06;39.67;101079.13;4995360;28;20093;-55
2022/04/11 08:09:25;;;;;;;8.70;1.73;;;;;;;11.16;39.90;101085.97;4995167;28;20046;-57
2022/04/11 08:11:55;;;;;;;10.82;2.08;;;;;;;11.18;40.24;101073.84;4995140;28;20082;-58
2022/04/11 08:14:23;;;;;;;5.88;1.50;;;;;;;11.32;39.93;101082.41;4995043;28;20050;-59
2022/04/11 08:16:52;;;;;;;9.80;2.35;;;;;;;11.34;39.77;101085.00;4994909;28;20356;-57
2022/04/11 08:19:19;;;;;;;6.10;1.63;;;;;;;11.55;39.70;101089.22;4985863;28;20054;-62
2022/04/11 08:21:47;;;;;;;7.15;1.95;;;;;;;11.79;39.88;101085.63;4990101;28;20490;-62
2022/04/11 08:24:15;;;;;;;6.20;1.45;;;;;;;12.02;39.58;101086.31;4994742;28;20065;-63
2022/04/11 08:26:42;;;;;;;8.13;1.70;;;;;;;12.18;38.97;101092.22;4995298;28;20058;-62
2022/04/11 08:29:10;;;;;;;24.23;3.47;;;;;;;12.05;38.36;101090.63;4995321;28;20058;-60
2022/04/11 08:31:38;;;;;;;6.82;1.83;;;;;;;11.95;38.56;101088.06;4994557;28;20483;-53
2022/04/11 08:34:07;;;;;;;8.80;1.55;;;;;;;11.78;38.53;101086.50;4991807;28;20069;-57
2022/04/11 08:36:36;;;;;;;5.78;2.20;;;;;;;11.37;38.90;101096.22;4986641;28;20046;-62
2022/04/11 08:39:04;;;;;;;9.35;1.90;;;;;;;11.08;39.70;101092.94;4994831;28;20061;-62
2022/04/11 08:41:33;;;;;;;4.00;1.25;;;;;;;10.91;39.71;101097.31;4991364;28;20085;-61
2022/04/11 08:44:04;;;;;;;5.63;1.55;;;;;;;10.62;39.06;101100.88;4994517;28;20400;-60
2022/04/11 08:46:33;;;;;;;24.27;3.65;;;;;;;10.33;40.03;101094.88;4994896;28;20134;-60
2022/04/11 08:49:02;;;;;;;8.80;1.70;;;;;;;10.18;40.16;101094.88;4994088;28;20061;-60
2022/04/11 08:51:32;;;;;;;10.15;1.65;;;;;;;10.35;41.00;101098.31;4994685;28;20057;-60
2022/04/11 08:54:01;;;;;;;8.23;2.53;;;;;;;10.63;40.70;101100.00;4983047;28;20046;-60
2022/04/11 08:56:29;;;;;;;4.35;2.10;;;;;;;10.84;39.80;101098.22;4994320;28;20057;-60
2022/04/11 08:58:57;;;;;;;7.05;1.90;;;;;;;10.91;39.26;101094.72;4994177;28;20065;-61
2022/04/11 09:01:25;;;;;;;12.93;2.30;;;;;;;10.82;39.32;101097.34;4994230;28;20088;-64
2022/04/11 09:03:53;;;;;;;9.38;2.10;;;;;;;10.63;39.59;101105.19;4997126;28;20046;-59
2022/04/11 09:06:24;;;;;;;9.77;2.25;;;;;;;10.43;40.09;101102.66;4997635;28;20050;-57
2022/04/11 09:08:54;;;;;;;7.03;2.00;;;;;;;10.26;40.33;101108.72;4994123;28;20065;-57
2022/04/11 09:11:30;;;;;;;6.68;1.92;;;;;;;10.13;40.60;101103.50;4993946;28;20054;-57
2022/04/11 09:14:00;;;;;;;12.85;2.75;;;;;;;10.10;40.98;101103.50;4994311;28;20049;-53
2022/04/11 09:16:27;;;;;;;10.65;2.40;;;;;;;10.12;40.70;101112.16;4991929;28;20054;-61
2022/04/11 09:18:56;;;;;;;6.05;1.80;;;;;;;10.16;41.13;101106.97;4993372;28;20092;-58
2022/04/11 09:21:25;;;;;;;5.57;1.92;;;;;;;10.18;40.82;101110.41;4993916;28;20078;-59
2022/04/11 09:24:17;;;;;;;5.50;1.35;;;;;;;10.12;40.37;101112.16;4994132;28;20129;-64
2022/04/11 09:26:47;;;;;;;6.70;2.17;;;;;;;9.98;39.56;101119.06;4990684;28;20043;-63
2022/04/11 09:29:16;;;;;;;6.68;1.42;;;;;;;9.82;40.00;101106.94;4988125;28;20113;-64
2022/04/11 09:31:44;;;;;;;7.07;1.45;;;;;;;9.72;40.19;101105.22;4992878;28;20053;-59
2022/04/11 09:34:17;;;;;;;8.18;2.03;;;;;;;9.63;40.67;101107.78;4993517;28;20046;-63
2022/04/11 09:36:47;;;;;;;7.65;1.80;;;;;;;9.49;40.90;101103.47;4993085;28;20061;-62
2022/04/11 09:39:19;;;;;;;9.23;2.22;;;;;;;9.38;41.50;101100.00;4993721;28;20153;-59
2022/04/11 09:42:04;;;;;;;15.18;2.22;;;;;;;9.41;40.85;101110.34;4977710;28;20042;-62
2022/04/11 09:44:34;;;;;;;8.13;1.70;;;;;;;9.51;40.86;101105.19;4993419;28;20106;-61
2022/04/11 09:47:05;;;;;;;12.18;1.90;;;;;;;9.58;40.37;101109.50;4993506;28;20050;-61
2022/04/11 09:49:38;;;;;;;9.50;1.70;;;;;;;9.60;39.34;101111.25;4993145;28;20054;-59
2022/04/11 09:52:09;;;;;;;15.95;1.63;;;;;;;9.62;38.92;101108.66;4994090;28;20054;-63
2022/04/11 09:54:39;;;;;;;8.27;1.48;;;;;;;9.59;38.83;101113.81;4993794;28;20057;-59
2022/04/11 09:57:08;;;;;;;10.20;1.60;;;;;;;9.59;39.31;101113.81;4993386;28;20057;-58
2022/04/11 09:59:36;;;;;;;9.73;3.53;;;;;;;9.57;39.73;101108.66;4993413;28;20541;-60
2022/04/11 10:02:05;;;;;;;4.72;1.50;;;;;;;9.54;39.58;101120.72;4996691;28;20051;-59
2022/04/11 10:04:34;;;;;;;7.90;2.20;;;;;;;9.54;40.02;101123.31;4997519;28;20050;-59
2022/04/11 10:07:03;;;;;;;8.10;1.83;;;;;;;9.43;39.95;101123.28;4997428;28;20510;-61
2022/04/11 10:09:33;;;;;;;8.32;1.65;;;;;;;9.31;39.72;101123.22;4998312;28;20065;-56
2022/04/11 10:12:03;;;;;;;19.05;2.67;;;;;;;9.17;39.94;101118.88;4997469;28;20141;-64
2022/04/11 10:14:31;;;;;;;9.80;1.58;;;;;;;9.10;40.63;101118.84;4997809;28;20050;-62
2022/04/11 10:17:01;;;;;;;10.32;1.80;;;;;;;9.03;40.99;101122.28;4996752;28;20431;-55
2022/04/11 10:19:31;;;;;;;4.93;1.65;;;;;;;8.99;40.55;101125.72;4997553;28;20054;-53
2022/04/11 10:22:03;;;;;;;8.85;1.80;;;;;;;8.99;41.10;101115.38;4997358;28;20065;-60
2022/04/11 10:24:34;;;;;;;3.38;1.10;;;;;;;9.09;41.06;101124.88;4997533;28;20052;-60
2022/04/11 10:27:20;;;;;;;7.20;1.40;;;;;;;9.23;40.18;101125.78;4997010;28;20050;-59
2022/04/11 10:29:50;;;;;;;6.43;1.30;;;;;;;9.29;40.21;101124.94;4996188;28;20061;-61
2022/04/11 10:32:19;;;;;;;10.88;1.30;;;;;;;9.38;39.37;101120.69;4996867;28;20050;-62
2022/04/11 10:34:54;;;;;;;7.78;1.48;;;;;;;9.54;39.00;101128.50;4996810;28;20058;-60
2022/04/11 10:37:23;;;;;;;6.25;1.65;;;;;;;9.71;39.84;101124.19;4997084;28;20058;-62
2022/04/11 10:39:52;;;;;;;5.90;1.20;;;;;;;9.86;39.08;101121.63;5000346;28;20451;-65
2022/04/11 10:42:28;;;;;;;12.18;1.70;;;;;;;9.97;39.24;101125.09;4996536;28;20051;-64
2022/04/11 10:44:59;;;;;;;5.63;1.65;;;;;;;10.00;38.83;101132.88;4994764;28;20061;-64
2022/04/11 10:47:30;;;;;;;4.60;1.42;;;;;;;9.90;39.24;101125.97;4994203;28;20447;-64
2022/04/11 10:50:23;;;;;;;9.50;2.03;;;;;;;9.90;39.01;101131.16;4994215;28;20133;-64
2022/04/11 10:53:08;;;;;;;8.20;1.60;;;;;;;9.95;40.51;101134.59;4993898;28;20058;-64
2022/04/11 10:55:35;;;;;;;5.97;1.40;;;;;;;10.08;40.90;101130.28;4994425;28;20064;-64
2022/04/11 10:58:04;;;;;;;7.45;1.65;;;;;;;10.27;41.86;101133.75;4994735;28;20053;-64
2022/04/11 11:00:33;;;;;;;4.07;1.65;;;;;;;10.44;40.75;101126.84;4996652;28;20050;-64
2022/04/11 11:03:14;;;;;;;12.30;1.67;;;;;;;10.63;40.36;101130.25;4996225;28;20061;-64
2022/04/11 11:05:45;;;;;;;4.32;1.52;;;;;;;10.72;40.52;101133.69;4996108;28;20038;-62
2022/04/11 11:08:37;;;;;;;6.13;1.30;;;;;;;10.82;39.97;101131.06;4996647;28;20137;-59
2022/04/11 11:11:25;;;;;;;4.65;1.20;;;;;;;10.74;39.46;101131.94;4990894;28;20480;-53
2022/04/11 11:13:58;;;;;;;20.58;1.67;;;;;;;10.69;39.77;101131.09;5001901;28;20125;-60
2022/04/11 11:16:47;;;;;;;6.13;1.30;;;;;;;10.67;39.94;101138.03;4995414;28;20156;-60
2022/04/11 11:19:22;;;;;;;6.40;1.85;;;;;;;10.63;39.99;101138.91;4985065;28;20058;-59
2022/04/11 11:22:02;;;;;;;;;;;;;;;10.58;39.29;101137.19;4981445;28;20050;-57
2022/04/11 11:24:33;;;;;;;5.15;1.20;;;;;;;10.61;39.33;101140.63;4987968;28;19925;-61
2022/04/11 11:27:06;;;;;;;3.45;1.20;;;;;;;10.53;39.19;101134.59;4985670;28;20133;-64
2022/04/11 11:29:41;;;;;;;5.55;1.30;;;;;;;10.53;39.30;101131.16;4994551;28;20068;-61
2022/04/11 11:32:18;;;;;;;2.20;0.88;;;;;;;10.51;39.71;101140.66;4995795;28;20047;-58